Aviation Digital Data Service (ADDS)

Output produced by TAFs form (0745 UTC 29 May 2017)
found at http://www.aviationweather.gov/adds/tafs/
 
METAR text: RJOM 290700Z 20005KT CAVOK 26/09 Q1010
Conditions at: RJOM (MATSUYAMA AIRPOR, JP) observed 0700 UTC 29 May 2017
Temperature: 26.0°C (79°F)
Dewpoint: 9.0°C (48°F) [RH = 34%]
Pressure (altimeter): 29.82 inches Hg (1010.0 mb)
Winds: from the SSW (200 degrees) at 6 MPH (5 knots; 2.6 m/s)
Visibility: 6 or more miles (10+ km)
Ceiling: ceiling and visibility are OK
Clouds: unknown
Weather: no significant weather observed at this time

Forecast for: RJOM (MATSUYAMA AIRPOR, JP)
Text: TAF RJOM 290507Z 2906/3012 21005KT 9999 FEW040
Forecast period: 0600 UTC 29 May 2017 to 0000 UTC 30 May 2017
Forecast type: FROM: standard forecast or significant change
Winds: from the SSW (210 degrees) at 6 MPH (5 knots; 2.6 m/s)
Visibility: 6 or more miles (10+ km)
Clouds: few clouds at 4000 feet AGL
Weather: no significant weather forecast for this period
Text: BECMG 3000/3003 30005KT
Forecast period: 0000 to 1200 UTC 30 May 2017
Forecast type: BECOMING: Conditions expected to become as follows by 0300 UTC 30 May 2017
Winds: from the WNW (300 degrees) at 6 MPH (5 knots; 2.6 m/s)
Visibility: 6 or more miles (10+ km)
Clouds: few clouds at 4000 feet AGL
Weather: no significant weather forecast for this period